Time;durP1;ratioP1;P1;durP2;ratioP2;P2;SDS_P1;SDS_P2;PMS_P1;PMS_P2;Temp;Humidity;BMP_temperature;BMP_pressure;BME280_temperature;BME280_humidity;BME280_pressure;Samples;Min_cycle;Max_cycle;Signal;HPM_P1;HPM_P2
2021/12/26 08:00:55;;;;;;;3.30;1.40;;;;;;;;;;5090192;27;20374;-81
2021/12/26 08:03:21;;;;;;;4.03;1.52;;;;;;;;;;5089813;28;20082;-81
2021/12/26 08:05:46;;;;;;;7.10;1.55;;;;;;;;;;5071501;28;20042;-78
2021/12/26 08:08:12;;;;;;;3.17;1.42;;;;;;;;;;5071290;28;20402;-81
2021/12/26 08:10:37;;;;;;;2.22;1.52;;;;;;;;;;5088496;28;20482;-78
2021/12/26 08:13:02;;;;;;;5.05;1.65;;;;;;;;;;5088196;28;20060;-80
2021/12/26 08:15:29;;;;;;;2.38;1.42;;;;;;;;;;5071429;28;20509;-80
2021/12/26 08:17:54;;;;;;;8.48;1.52;;;;;;;;;;5071252;28;20083;-80
2021/12/26 08:20:20;;;;;;;2.13;1.27;;;;;;;;;;5087881;28;20063;-79
2021/12/26 08:22:46;;;;;;;2.55;1.35;;;;;;;;;;5088241;28;20036;-79
2021/12/26 08:25:11;;;;;;;2.75;1.52;;;;;;;;;;5089560;28;20035;-79
2021/12/26 08:27:37;;;;;;;1.73;1.35;;;;;;;;;;5089456;28;20449;-78
2021/12/26 08:30:04;;;;;;;2.40;1.55;;;;;;;;;;5090273;28;20051;-79
2021/12/26 08:32:31;;;;;;;5.13;1.67;;;;;;;;;;5089808;28;20066;-80
2021/12/26 08:34:59;;;;;;;2.97;1.60;;;;;;;;;;5088304;28;20103;-80
2021/12/26 08:37:26;;;;;;;2.03;1.50;;;;;;;;;;5087780;28;20047;-81
2021/12/26 08:39:52;;;;;;;4.60;1.50;;;;;;;;;;5089182;28;20498;-81
2021/12/26 08:42:18;;;;;;;2.55;1.23;;;;;;;;;;5054185;28;20040;-79
2021/12/26 08:44:43;;;;;;;3.85;1.60;;;;;;;;;;5089075;28;20020;-79
2021/12/26 08:47:10;;;;;;;3.85;1.40;;;;;;;;;;5070975;28;20028;-79
2021/12/26 08:49:35;;;;;;;2.22;1.60;;;;;;;;;;5088098;28;20052;-79
2021/12/26 08:52:02;;;;;;;3.00;1.80;;;;;;;;;;5088104;28;20058;-80
2021/12/26 08:54:29;;;;;;;1.58;1.48;;;;;;;;;;5088631;28;20033;-82
2021/12/26 08:56:55;;;;;;;1.52;1.33;;;;;;;;;;5071018;28;20050;-80
2021/12/26 08:59:24;;;;;;;1.90;1.27;;;;;;;;;;5087475;28;20528;-80
2021/12/26 09:01:50;;;;;;;1.35;1.25;;;;;;;;;;5087641;28;20031;-79
2021/12/26 09:04:15;;;;;;;4.40;2.08;;;;;;;;;;5070616;28;20414;-79
2021/12/26 09:06:41;;;;;;;2.58;1.20;;;;;;;;;;5089468;28;20116;-80
2021/12/26 09:09:08;;;;;;;1.88;1.42;;;;;;;;;;5085647;28;20424;-85
2021/12/26 09:11:34;;;;;;;2.00;1.55;;;;;;;;;;5062544;28;20040;-84
2021/12/26 09:13:59;;;;;;;4.47;1.73;;;;;;;;;;5074799;28;20047;-83
2021/12/26 09:16:30;;;;;;;2.15;1.58;;;;;;;;;;5076674;28;20052;-85
2021/12/26 09:18:55;;;;;;;1.83;1.70;;;;;;;;;;5076200;28;20526;-85
2021/12/26 09:21:21;;;;;;;4.05;1.42;;;;;;;;;;5074659;28;20075;-80
2021/12/26 09:23:46;;;;;;;2.67;1.50;;;;;;;;;;5057179;28;20055;-80
2021/12/26 09:26:12;;;;;;;1.73;1.42;;;;;;;;;;5072936;28;20040;-80
2021/12/26 09:28:38;;;;;;;3.60;1.50;;;;;;;;;;5073387;28;20034;-80
2021/12/26 09:31:04;;;;;;;3.35;1.63;;;;;;;;;;5074358;28;20054;-81
2021/12/26 09:33:29;;;;;;;2.55;1.60;;;;;;;;;;5072843;28;20119;-80
2021/12/26 09:35:55;;;;;;;2.60;1.42;;;;;;;;;;5073979;28;20572;-80
2021/12/26 09:38:20;;;;;;;2.00;1.48;;;;;;;;;;5074139;28;20029;-84
2021/12/26 09:40:46;;;;;;;1.50;1.40;;;;;;;;;;5074026;28;20044;-86
2021/12/26 09:43:12;;;;;;;2.03;1.50;;;;;;;;;;5076574;28;20045;-86
2021/12/26 09:45:38;;;;;;;3.05;1.60;;;;;;;;;;5074531;28;20032;-79
2021/12/26 09:48:03;;;;;;;3.13;1.65;;;;;;;;;;5074596;28;20035;-77
2021/12/26 09:50:29;;;;;;;3.00;1.95;;;;;;;;;;5073926;28;20029;-76
2021/12/26 09:52:54;;;;;;;1.75;1.55;;;;;;;;;;5074480;28;20028;-75
2021/12/26 09:55:20;;;;;;;1.70;1.50;;;;;;;;;;5075441;28;20035;-76
2021/12/26 09:57:46;;;;;;;3.13;1.80;;;;;;;;;;5072867;28;20040;-78
2021/12/26 10:00:26;;;;;;;1.80;1.60;;;;;;;;;;5071590;28;20138;-76
2021/12/26 10:03:08;;;;;;;2.47;1.60;;;;;;;;;;5068055;28;20056;-76
2021/12/26 10:05:53;;;;;;;2.33;1.63;;;;;;;;;;5070066;28;20071;-77
2021/12/26 10:08:18;;;;;;;3.35;1.88;;;;;;;;;;5072913;28;20035;-76
2021/12/26 10:11:10;;;;;;;1.88;1.50;;;;;;;;;;5072117;28;20115;-77
2021/12/26 10:13:57;;;;;;;2.83;1.52;;;;;;;;;;5073256;28;20063;-77
2021/12/26 10:16:26;;;;;;;2.13;1.55;;;;;;;;;;5072741;28;20024;-78
2021/12/26 10:18:51;;;;;;;4.70;1.67;;;;;;;;;;5074682;28;20056;-77
2021/12/26 10:21:28;;;;;;;3.10;1.50;;;;;;;;;;5074544;28;20367;-76
2021/12/26 10:23:59;;;;;;;3.65;1.48;;;;;;;;;;5055125;28;20047;-77
2021/12/26 10:26:28;;;;;;;6.10;1.95;;;;;;;;;;5073927;28;20027;-75
2021/12/26 10:29:27;;;;;;;6.20;1.90;;;;;;;;;;5055400;28;20101;-73
2021/12/26 10:31:55;;;;;;;7.63;2.25;;;;;;;;;;5068477;28;20492;-75
2021/12/26 10:34:30;;;;;;;13.40;2.70;;;;;;;;;;5074083;28;20028;-76
2021/12/26 10:36:56;;;;;;;9.20;2.28;;;;;;;;;;5077492;28;20020;-85
2021/12/26 10:39:25;;;;;;;6.82;1.88;;;;;;;;;;5071808;28;20025;-86
2021/12/26 10:41:54;;;;;;;10.23;2.50;;;;;;;;;;5073367;28;20028;-86
2021/12/26 10:44:24;;;;;;;9.27;2.25;;;;;;;;;;5071902;28;20031;-84
2021/12/26 10:46:52;;;;;;;4.82;2.05;;;;;;;;;;5072541;28;20020;-83
2021/12/26 10:49:25;;;;;;;12.13;2.03;;;;;;;;;;5053185;28;20086;-83
2021/12/26 10:51:51;;;;;;;13.68;2.03;;;;;;;;;;5067910;28;20146;-84
2021/12/26 10:54:19;;;;;;;10.73;2.13;;;;;;;;;;5058791;28;20384;-82
2021/12/26 10:57:10;;;;;;;8.95;1.95;;;;;;;;;;5057076;28;20406;-81
2021/12/26 10:59:36;;;;;;;2.70;1.50;;;;;;;;;;5072473;28;20063;-82
2021/12/26 11:02:01;;;;;;;3.35;1.65;;;;;;;;;;5073527;28;20040;-81
2021/12/26 11:04:35;;;;;;;3.88;1.90;;;;;;;;;;5074196;28;20028;-80
2021/12/26 11:07:10;;;;;;;3.78;1.67;;;;;;;;;;5072752;28;20047;-81
2021/12/26 11:09:38;;;;;;;5.25;1.58;;;;;;;;;;5060259;28;20036;-81
2021/12/26 11:12:09;;;;;;;2.47;1.50;;;;;;;;;;5055796;28;20036;-82
2021/12/26 11:14:58;;;;;;;2.35;1.55;;;;;;;;;;5071768;28;20502;-83
2021/12/26 11:17:31;;;;;;;2.90;1.30;;;;;;;;;;5071739;28;20416;-80
2021/12/26 11:19:56;;;;;;;4.37;1.67;;;;;;;;;;5071914;28;20031;-80
2021/12/26 11:22:24;;;;;;;4.38;1.75;;;;;;;;;;5070121;28;20020;-82
2021/12/26 11:24:50;;;;;;;4.45;1.58;;;;;;;;;;5074080;28;20383;-82
2021/12/26 11:27:16;;;;;;;6.40;1.40;;;;;;;;;;5074103;28;20127;-81
2021/12/26 11:29:41;;;;;;;1.73;1.30;;;;;;;;;;5072204;28;20127;-82
2021/12/26 11:32:07;;;;;;;2.00;1.50;;;;;;;;;;5056079;28;20028;-81
2021/12/26 11:34:33;;;;;;;3.22;1.38;;;;;;;;;;5055616;28;20024;-82
2021/12/26 11:36:59;;;;;;;2.00;1.25;;;;;;;;;;5072821;28;20467;-83
2021/12/26 11:39:28;;;;;;;2.42;1.20;;;;;;;;;;5056638;28;20117;-82
2021/12/26 11:41:53;;;;;;;4.18;1.63;;;;;;;;;;5072529;28;20391;-81
2021/12/26 11:44:47;;;;;;;5.28;1.15;;;;;;;;;;5073719;28;20029;-82
2021/12/26 11:47:36;;;;;;;1.63;0.98;;;;;;;;;;5073462;28;20025;-82
2021/12/26 11:50:14;;;;;;;1.55;1.30;;;;;;;;;;5072089;28;20031;-81
2021/12/26 11:52:54;;;;;;;2.50;1.20;;;;;;;;;;5073400;28;20032;-82
2021/12/26 11:55:26;;;;;;;1.75;1.00;;;;;;;;;;5073564;28;20080;-80
2021/12/26 11:58:09;;;;;;;1.95;1.42;;;;;;;;;;5073402;28;20028;-82
2021/12/26 12:00:38;;;;;;;1.70;1.08;;;;;;;;;;5071986;28;20068;-81
2021/12/26 12:03:07;;;;;;;1.20;1.10;;;;;;;;;;5074101;28;20032;-85
2021/12/26 12:05:41;;;;;;;1.70;1.20;;;;;;;;;;5055536;28;20024;-81
2021/12/26 12:08:11;;;;;;;2.15;1.35;;;;;;;;;;5073451;28;20535;-82
2021/12/26 12:10:41;;;;;;;4.97;1.20;;;;;;;;;;5073389;28;20032;-81
2021/12/26 12:13:09;;;;;;;1.08;1.00;;;;;;;;;;5055223;28;20032;-79
2021/12/26 12:15:47;;;;;;;3.17;1.48;;;;;;;;;;5072597;28;20028;-80
2021/12/26 12:18:34;;;;;;;2.30;1.33;;;;;;;;;;5073674;28;20059;-80
2021/12/26 12:21:13;;;;;;;2.55;1.10;;;;;;;;;;5072236;28;20027;-81
2021/12/26 12:24:04;;;;;;;2.60;1.08;;;;;;;;;;5072958;28;20533;-80
2021/12/26 12:26:53;;;;;;;2.63;1.10;;;;;;;;;;5072358;28;20027;-79
2021/12/26 12:29:21;;;;;;;3.38;1.10;;;;;;;;;;5072701;28;20044;-80
2021/12/26 12:31:47;;;;;;;2.03;1.10;;;;;;;;;;5073373;28;20031;-81
2021/12/26 12:34:13;;;;;;;1.20;1.10;;;;;;;;;;5073428;28;20649;-80
2021/12/26 12:36:45;;;;;;;1.20;1.10;;;;;;;;;;5071822;28;20479;-80
2021/12/26 12:39:21;;;;;;;1.50;1.00;;;;;;;;;;5073182;28;20070;-79
2021/12/26 12:41:52;;;;;;;2.47;1.40;;;;;;;;;;5073052;28;20092;-81
2021/12/26 12:44:35;;;;;;;3.33;1.10;;;;;;;;;;5073053;28;20028;-82
2021/12/26 12:47:03;;;;;;;1.58;0.88;;;;;;;;;;5074500;28;20504;-82
2021/12/26 12:49:53;;;;;;;1.40;1.10;;;;;;;;;;5075420;28;20028;-81
2021/12/26 12:52:41;;;;;;;1.33;1.10;;;;;;;;;;5075641;28;20102;-81
2021/12/26 12:55:22;;;;;;;1.20;1.00;;;;;;;;;;5076496;28;20062;-80
2021/12/26 12:57:51;;;;;;;1.77;1.15;;;;;;;;;;5076522;28;20032;-82
2021/12/26 13:00:26;;;;;;;1.00;0.95;;;;;;;;;;5074990;28;20045;-81
2021/12/26 13:02:56;;;;;;;1.80;0.90;;;;;;;;;;5076577;28;20028;-81
2021/12/26 13:05:27;;;;;;;2.97;1.00;;;;;;;;;;5058390;28;20025;-81
2021/12/26 13:07:57;;;;;;;1.77;1.20;;;;;;;;;;5075394;28;20031;-81
2021/12/26 13:10:23;;;;;;;1.73;1.13;;;;;;;;;;5076743;28;20029;-79
2021/12/26 13:12:48;;;;;;;2.72;0.98;;;;;;;;;;5076902;28;20032;-81
2021/12/26 13:15:15;;;;;;;1.63;1.00;;;;;;;;;;5076962;28;20032;-79
2021/12/26 13:17:42;;;;;;;0.95;0.90;;;;;;;;;;5075425;28;20038;-81
2021/12/26 13:20:20;;;;;;;2.35;1.13;;;;;;;;;;5076001;28;20510;-79
2021/12/26 13:23:07;;;;;;;1.90;1.27;;;;;;;;;;5075155;28;20033;-80
2021/12/26 13:25:39;;;;;;;2.92;1.30;;;;;;;;;;5076104;28;20496;-81
2021/12/26 13:28:10;;;;;;;4.43;1.70;;;;;;;;;;5076466;28;20059;-81
2021/12/26 13:30:42;;;;;;;2.67;1.58;;;;;;;;;;5076211;28;20328;-81
2021/12/26 13:33:37;;;;;;;5.38;1.70;;;;;;;;;;5075302;28;20056;-80
2021/12/26 13:36:21;;;;;;;2.85;1.50;;;;;;;;;;5057411;28;20043;-81
2021/12/26 13:38:47;;;;;;;3.65;1.63;;;;;;;;;;5074676;28;20489;-82
2021/12/26 13:41:15;;;;;;;3.90;1.90;;;;;;;;;;5074553;28;20078;-80
2021/12/26 13:43:42;;;;;;;3.20;1.63;;;;;;;;;;5074727;28;20032;-81
2021/12/26 13:46:10;;;;;;;4.32;2.33;;;;;;;;;;5074398;28;20050;-80
2021/12/26 13:48:38;;;;;;;1.60;1.50;;;;;;;;;;5075493;28;20040;-81
2021/12/26 13:51:20;;;;;;;2.78;1.70;;;;;;;;;;5075857;28;20486;-81
2021/12/26 13:53:52;;;;;;;3.88;1.60;;;;;;;;;;5074547;28;20051;-80
2021/12/26 13:56:17;;;;;;;4.38;1.80;;;;;;;;;;5075660;28;20028;-81
2021/12/26 13:58:43;;;;;;;2.15;1.70;;;;;;;;;;5074979;28;20048;-81
2021/12/26 14:01:10;;;;;;;2.63;1.65;;;;;;;;;;5057404;28;20462;-81
2021/12/26 14:03:35;;;;;;;2.00;1.70;;;;;;;;;;5074442;28;20119;-80
2021/12/26 14:06:01;;;;;;;1.65;1.45;;;;;;;;;;5057425;28;20120;-80
2021/12/26 14:08:28;;;;;;;3.28;1.60;;;;;;;;;;5075532;28;20472;-81
2021/12/26 14:11:05;;;;;;;2.05;1.60;;;;;;;;;;5075591;28;20104;-81
2021/12/26 14:13:31;;;;;;;2.20;1.60;;;;;;;;;;5057614;28;20036;-81
2021/12/26 14:16:00;;;;;;;2.00;1.40;;;;;;;;;;5058749;28;20490;-81
2021/12/26 14:18:29;;;;;;;2.15;1.60;;;;;;;;;;5074432;28;20028;-82
2021/12/26 14:20:59;;;;;;;2.72;1.83;;;;;;;;;;5074179;28;20029;-82
2021/12/26 14:23:29;;;;;;;3.00;1.65;;;;;;;;;;5073902;28;20024;-81
2021/12/26 14:26:01;;;;;;;1.50;1.40;;;;;;;;;;5074068;28;20024;-80
2021/12/26 14:28:27;;;;;;;1.58;1.38;;;;;;;;;;5074003;28;20067;-81
2021/12/26 14:30:57;;;;;;;2.63;1.85;;;;;;;;;;5057717;28;20048;-80
2021/12/26 14:33:31;;;;;;;1.70;1.42;;;;;;;;;;5074284;28;20181;-80
2021/12/26 14:36:05;;;;;;;2.17;1.60;;;;;;;;;;5057829;28;20083;-81
2021/12/26 14:38:30;;;;;;;3.35;1.52;;;;;;;;;;5075072;28;20020;-80
2021/12/26 14:41:03;;;;;;;3.03;1.90;;;;;;;;;;5074870;28;20103;-81
2021/12/26 14:43:29;;;;;;;3.90;1.50;;;;;;;;;;5073680;28;20040;-81
2021/12/26 14:45:59;;;;;;;2.60;2.05;;;;;;;;;;5057759;28;20021;-81
2021/12/26 14:48:31;;;;;;;2.53;1.90;;;;;;;;;;5073738;28;20021;-81
2021/12/26 14:51:13;;;;;;;3.25;1.90;;;;;;;;;;5075059;28;20027;-81
2021/12/26 14:53:39;;;;;;;3.70;1.92;;;;;;;;;;5078420;28;20052;-81
2021/12/26 14:56:08;;;;;;;6.90;2.50;;;;;;;;;;5079268;28;20027;-82
2021/12/26 14:58:43;;;;;;;11.27;3.15;;;;;;;;;;5078281;28;20024;-80
2021/12/26 15:01:21;;;;;;;11.82;2.92;;;;;;;;;;5079034;28;20044;-80
2021/12/26 15:03:47;;;;;;;7.78;2.88;;;;;;;;;;5076671;28;20028;-79
2021/12/26 15:06:13;;;;;;;7.15;2.65;;;;;;;;;;5060342;28;20032;-79
2021/12/26 15:08:39;;;;;;;5.47;2.80;;;;;;;;;;5060825;28;20032;-79
2021/12/26 15:11:06;;;;;;;8.98;2.53;;;;;;;;;;5075985;28;20415;-79
2021/12/26 15:13:37;;;;;;;6.35;2.20;;;;;;;;;;5074502;28;20028;-80
2021/12/26 15:16:02;;;;;;;5.70;1.85;;;;;;;;;;5074672;28;20028;-81
2021/12/26 15:18:29;;;;;;;7.35;2.33;;;;;;;;;;5056322;28;20039;-78
2021/12/26 15:21:07;;;;;;;3.92;2.38;;;;;;;;;;5074481;28;20024;-81
2021/12/26 15:23:35;;;;;;;4.30;1.90;;;;;;;;;;5073776;28;20027;-79
2021/12/26 15:26:11;;;;;;;7.13;2.10;;;;;;;;;;5072535;28;20119;-80
2021/12/26 15:28:44;;;;;;;3.55;2.03;;;;;;;;;;5055914;28;20136;-80
2021/12/26 15:31:16;;;;;;;6.05;2.20;;;;;;;;;;5074589;28;20062;-81
2021/12/26 15:33:45;;;;;;;4.85;2.25;;;;;;;;;;5072915;28;20381;-80
2021/12/26 15:36:15;;;;;;;4.90;2.35;;;;;;;;;;5073735;28;20035;-79
2021/12/26 15:38:42;;;;;;;5.63;2.40;;;;;;;;;;5076070;28;20017;-79
2021/12/26 15:41:10;;;;;;;6.07;2.10;;;;;;;;;;5074902;28;20032;-80
2021/12/26 15:43:35;;;;;;;2.65;2.05;;;;;;;;;;5055694;28;20378;-80
2021/12/26 15:46:00;;;;;;;5.47;2.10;;;;;;;;;;5073363;28;20154;-80
2021/12/26 15:48:26;;;;;;;3.60;1.85;;;;;;;;;;5072211;28;20073;-81
2021/12/26 15:50:51;;;;;;;3.17;2.17;;;;;;;;;;5073529;28;20024;-82
2021/12/26 15:53:17;;;;;;;3.33;1.85;;;;;;;;;;5072414;28;20028;-82
2021/12/26 15:55:42;;;;;;;3.88;2.08;;;;;;;;;;5073533;28;20035;-80
2021/12/26 15:58:08;;;;;;;3.53;2.17;;;;;;;;;;5072428;28;20074;-79
2021/12/26 16:00:33;;;;;;;5.25;2.35;;;;;;;;;;5074057;28;20507;-79
2021/12/26 16:02:59;;;;;;;5.78;1.92;;;;;;;;;;5055841;28;20029;-79
2021/12/26 16:05:24;;;;;;;7.03;2.30;;;;;;;;;;5072067;28;20032;-81
2021/12/26 16:07:50;;;;;;;4.50;2.38;;;;;;;;;;5072766;28;20033;-81
2021/12/26 16:10:15;;;;;;;5.93;2.42;;;;;;;;;;5073396;28;20032;-82
2021/12/26 16:12:41;;;;;;;3.58;2.10;;;;;;;;;;5055647;28;20032;-82
2021/12/26 16:15:07;;;;;;;5.28;2.20;;;;;;;;;;5073600;28;20471;-83
2021/12/26 16:17:33;;;;;;;5.75;2.10;;;;;;;;;;5072217;28;20082;-82
2021/12/26 16:19:59;;;;;;;5.07;2.15;;;;;;;;;;5072025;28;20020;-83
2021/12/26 16:22:25;;;;;;;3.65;2.25;;;;;;;;;;5075398;28;20040;-84
2021/12/26 16:24:51;;;;;;;5.75;2.22;;;;;;;;;;5076010;28;20375;-82
2021/12/26 16:27:17;;;;;;;4.72;2.42;;;;;;;;;;5076002;28;20020;-83
2021/12/26 16:29:44;;;;;;;4.30;2.20;;;;;;;;;;5076030;28;20067;-82
2021/12/26 16:32:09;;;;;;;3.42;1.92;;;;;;;;;;5077032;28;20035;-82
2021/12/26 16:34:36;;;;;;;4.18;2.15;;;;;;;;;;5076092;28;20099;-83
2021/12/26 16:37:03;;;;;;;4.80;2.10;;;;;;;;;;5077525;28;20360;-83
2021/12/26 16:39:28;;;;;;;3.55;2.10;;;;;;;;;;5059576;28;20103;-83
2021/12/26 16:41:54;;;;;;;5.20;2.10;;;;;;;;;;5058914;28;20107;-82
2021/12/26 16:44:19;;;;;;;2.20;1.92;;;;;;;;;;5077105;28;20440;-83
2021/12/26 16:46:45;;;;;;;2.47;1.95;;;;;;;;;;5075568;28;20445;-82
2021/12/26 16:49:10;;;;;;;6.07;1.88;;;;;;;;;;5076558;28;20032;-82
2021/12/26 16:51:37;;;;;;;3.17;2.25;;;;;;;;;;5075445;28;20039;-82
2021/12/26 16:54:04;;;;;;;2.22;1.95;;;;;;;;;;5075286;28;20475;-82
2021/12/26 16:56:30;;;;;;;2.65;2.15;;;;;;;;;;5075304;28;20064;-83
2021/12/26 16:58:56;;;;;;;3.47;2.20;;;;;;;;;;5075345;28;20032;-82
2021/12/26 17:01:22;;;;;;;2.28;2.08;;;;;;;;;;5074940;28;20053;-84
2021/12/26 17:03:47;;;;;;;3.15;2.13;;;;;;;;;;5076383;28;20107;-82
2021/12/26 17:06:14;;;;;;;3.75;2.40;;;;;;;;;;5076301;28;20047;-83
2021/12/26 17:08:39;;;;;;;2.95;2.15;;;;;;;;;;5076578;28;20033;-83
2021/12/26 17:11:05;;;;;;;2.97;2.13;;;;;;;;;;5075120;28;20029;-83
2021/12/26 17:13:31;;;;;;;2.30;2.10;;;;;;;;;;5076419;28;20029;-83
2021/12/26 17:15:58;;;;;;;3.92;2.03;;;;;;;;;;5076535;28;20402;-83
2021/12/26 17:18:24;;;;;;;2.63;2.03;;;;;;;;;;5076493;28;20028;-83
2021/12/26 17:20:49;;;;;;;2.78;2.10;;;;;;;;;;5075251;28;20027;-84
2021/12/26 17:23:15;;;;;;;2.47;2.20;;;;;;;;;;5074829;28;20060;-83
2021/12/26 17:25:40;;;;;;;5.05;2.40;;;;;;;;;;5074822;28;20051;-84
2021/12/26 17:28:06;;;;;;;2.88;2.17;;;;;;;;;;5058415;28;20542;-82
2021/12/26 17:30:31;;;;;;;2.72;2.05;;;;;;;;;;5076182;28;20040;-79
2021/12/26 17:32:58;;;;;;;2.22;2.03;;;;;;;;;;5075380;28;20459;-81
2021/12/26 17:35:24;;;;;;;3.70;2.58;;;;;;;;;;5075856;28;20410;-80
2021/12/26 17:37:50;;;;;;;3.42;2.28;;;;;;;;;;5074596;28;20099;-81
2021/12/26 17:40:16;;;;;;;4.95;2.58;;;;;;;;;;5057735;28;20143;-80
2021/12/26 17:42:41;;;;;;;2.63;2.17;;;;;;;;;;5057731;28;20027;-80
2021/12/26 17:45:07;;;;;;;3.53;2.63;;;;;;;;;;5074284;28;20035;-81
2021/12/26 17:47:33;;;;;;;4.93;2.15;;;;;;;;;;5075588;28;20026;-81
2021/12/26 17:49:58;;;;;;;3.10;2.20;;;;;;;;;;5057525;28;20033;-81
2021/12/26 17:52:24;;;;;;;3.28;2.28;;;;;;;;;;5074281;28;20055;-81
2021/12/26 17:54:49;;;;;;;2.30;2.10;;;;;;;;;;5075778;28;20162;-81
2021/12/26 17:57:16;;;;;;;3.25;2.50;;;;;;;;;;5075743;28;20039;-81
2021/12/26 17:59:41;;;;;;;2.95;2.35;;;;;;;;;;5057567;28;20150;-81
2021/12/26 18:02:07;;;;;;;3.80;2.58;;;;;;;;;;5075837;28;20109;-81
2021/12/26 18:04:33;;;;;;;6.75;2.30;;;;;;;;;;5075912;28;20020;-81
2021/12/26 18:06:59;;;;;;;3.08;2.40;;;;;;;;;;5074610;28;20028;-82
2021/12/26 18:09:24;;;;;;;4.22;2.67;;;;;;;;;;5075267;28;20112;-83
2021/12/26 18:11:51;;;;;;;3.80;2.63;;;;;;;;;;5057103;28;20032;-81
2021/12/26 18:14:16;;;;;;;3.05;2.30;;;;;;;;;;5057330;28;20079;-80
2021/12/26 18:16:42;;;;;;;2.78;2.42;;;;;;;;;;5074375;28;20032;-81
2021/12/26 18:19:07;;;;;;;4.47;2.38;;;;;;;;;;5075194;28;20035;-81
2021/12/26 18:21:33;;;;;;;4.00;2.60;;;;;;;;;;5073721;28;20475;-80
2021/12/26 18:23:59;;;;;;;3.03;2.55;;;;;;;;;;5074860;28;20051;-80
2021/12/26 18:26:25;;;;;;;2.60;2.38;;;;;;;;;;5056910;28;20461;-79
2021/12/26 18:28:50;;;;;;;4.70;2.83;;;;;;;;;;5056752;28;20124;-80
2021/12/26 18:31:16;;;;;;;3.13;2.75;;;;;;;;;;5074984;28;20467;-80
2021/12/26 18:33:42;;;;;;;2.38;2.17;;;;;;;;;;5074610;28;20372;-81
2021/12/26 18:36:08;;;;;;;3.00;2.70;;;;;;;;;;5073456;28;20044;-80
2021/12/26 18:38:33;;;;;;;2.72;2.40;;;;;;;;;;5075046;28;20024;-81
2021/12/26 18:41:01;;;;;;;2.70;2.38;;;;;;;;;;5073714;28;20023;-81
2021/12/26 18:43:27;;;;;;;2.83;2.50;;;;;;;;;;5056156;28;20550;-80
2021/12/26 18:45:55;;;;;;;3.80;2.95;;;;;;;;;;5074791;28;20126;-80
2021/12/26 18:48:22;;;;;;;3.40;2.45;;;;;;;;;;5073217;28;20153;-80
2021/12/26 18:50:50;;;;;;;4.18;3.10;;;;;;;;;;5073094;28;20028;-79
2021/12/26 18:53:17;;;;;;;4.65;3.00;;;;;;;;;;5056750;28;20047;-80
2021/12/26 18:55:42;;;;;;;9.02;3.05;;;;;;;;;;5074778;28;20366;-81
2021/12/26 18:58:08;;;;;;;2.92;2.33;;;;;;;;;;5073234;28;20111;-80
2021/12/26 19:00:36;;;;;;;4.45;2.85;;;;;;;;;;5072728;28;20522;-80
2021/12/26 19:03:02;;;;;;;5.28;2.60;;;;;;;;;;5074307;28;20051;-80
2021/12/26 19:05:30;;;;;;;3.03;2.50;;;;;;;;;;5074224;28;20438;-80
2021/12/26 19:07:57;;;;;;;3.60;2.80;;;;;;;;;;5073034;28;20086;-79
2021/12/26 19:10:24;;;;;;;5.55;2.85;;;;;;;;;;5074117;28;20024;-81
2021/12/26 19:12:49;;;;;;;3.28;2.53;;;;;;;;;;5072884;28;20024;-80
2021/12/26 19:15:16;;;;;;;5.22;3.10;;;;;;;;;;5074251;28;20024;-80
2021/12/26 19:17:41;;;;;;;6.30;2.92;;;;;;;;;;5073119;28;20020;-81
2021/12/26 19:20:07;;;;;;;3.33;2.70;;;;;;;;;;5074159;28;20467;-81
2021/12/26 19:22:32;;;;;;;3.05;2.47;;;;;;;;;;5073786;28;20033;-80
2021/12/26 19:24:58;;;;;;;4.78;2.78;;;;;;;;;;5057175;28;20056;-81
2021/12/26 19:27:23;;;;;;;4.13;2.90;;;;;;;;;;5074332;28;20028;-80
2021/12/26 19:29:49;;;;;;;3.72;2.88;;;;;;;;;;5055955;28;20025;-80
2021/12/26 19:32:16;;;;;;;3.67;2.80;;;;;;;;;;5073747;28;20082;-80
2021/12/26 19:34:43;;;;;;;4.05;2.78;;;;;;;;;;5073890;28;20044;-81
2021/12/26 19:37:09;;;;;;;3.78;3.10;;;;;;;;;;5073902;28;20034;-80
2021/12/26 19:39:35;;;;;;;4.20;2.70;;;;;;;;;;5074303;28;20032;-80
2021/12/26 19:42:01;;;;;;;5.07;2.83;;;;;;;;;;5072282;28;20604;-81
2021/12/26 19:44:28;;;;;;;3.05;2.63;;;;;;;;;;5072654;28;20387;-81
2021/12/26 19:46:54;;;;;;;3.35;2.97;;;;;;;;;;5073427;28;20415;-81
2021/12/26 19:49:20;;;;;;;3.78;2.97;;;;;;;;;;5072142;28;20074;-80
2021/12/26 19:51:46;;;;;;;4.45;2.92;;;;;;;;;;5055470;28;20032;-80
2021/12/26 19:54:12;;;;;;;3.75;3.10;;;;;;;;;;5072528;28;20028;-80
2021/12/26 19:56:37;;;;;;;5.40;3.15;;;;;;;;;;5072243;28;20165;-80
2021/12/26 19:59:03;;;;;;;5.45;3.28;;;;;;;;;;5055366;28;20148;-80
2021/12/26 20:01:29;;;;;;;5.13;3.80;;;;;;;;;;5073056;28;20503;-80
2021/12/26 20:03:58;;;;;;;4.97;3.17;;;;;;;;;;5072299;28;20051;-80
2021/12/26 20:06:24;;;;;;;3.78;2.90;;;;;;;;;;5074015;28;20032;-79
2021/12/26 20:08:50;;;;;;;3.88;2.83;;;;;;;;;;5072198;28;20070;-80
2021/12/26 20:11:15;;;;;;;3.80;3.30;;;;;;;;;;5073126;28;20028;-80
2021/12/26 20:13:43;;;;;;;4.63;3.20;;;;;;;;;;5073352;28;20086;-80
2021/12/26 20:16:11;;;;;;;5.95;3.17;;;;;;;;;;5073496;28;20025;-80
2021/12/26 20:18:39;;;;;;;4.45;3.03;;;;;;;;;;5073133;28;20043;-79
2021/12/26 20:21:06;;;;;;;5.40;3.20;;;;;;;;;;5055433;28;20107;-80
2021/12/26 20:23:31;;;;;;;4.90;3.50;;;;;;;;;;5055189;28;20082;-80
2021/12/26 20:25:58;;;;;;;3.83;3.40;;;;;;;;;;5072169;28;20036;-80
2021/12/26 20:28:24;;;;;;;4.18;3.08;;;;;;;;;;5072924;28;20507;-80
2021/12/26 20:30:50;;;;;;;3.60;3.08;;;;;;;;;;5071789;28;20033;-80
2021/12/26 20:33:18;;;;;;;4.18;3.38;;;;;;;;;;5071846;28;20451;-80
2021/12/26 20:35:44;;;;;;;5.15;3.63;;;;;;;;;;5071964;28;20032;-80
2021/12/26 20:38:09;;;;;;;4.15;3.10;;;;;;;;;;5073088;28;20040;-80
2021/12/26 20:40:35;;;;;;;4.20;3.20;;;;;;;;;;5072201;28;20028;-79
2021/12/26 20:43:02;;;;;;;3.85;3.00;;;;;;;;;;5072662;28;20102;-79
2021/12/26 20:45:28;;;;;;;3.95;3.25;;;;;;;;;;5074047;28;20025;-80
2021/12/26 20:47:53;;;;;;;4.95;3.38;;;;;;;;;;5074450;28;20127;-79
2021/12/26 20:50:19;;;;;;;3.17;2.80;;;;;;;;;;5075073;28;20467;-80
2021/12/26 20:52:45;;;;;;;4.18;3.40;;;;;;;;;;5073742;28;20112;-80
2021/12/26 20:55:13;;;;;;;3.67;3.05;;;;;;;;;;5074656;28;20092;-79
2021/12/26 20:57:38;;;;;;;4.50;3.30;;;;;;;;;;5076450;28;20033;-79
2021/12/26 21:00:10;;;;;;;3.53;3.20;;;;;;;;;;5061758;28;20039;-79
2021/12/26 21:02:35;;;;;;;3.92;2.97;;;;;;;;;;5078953;28;20040;-80
2021/12/26 21:05:01;;;;;;;4.88;3.45;;;;;;;;;;5079445;28;20024;-80
2021/12/26 21:07:27;;;;;;;4.95;3.05;;;;;;;;;;5079267;28;20490;-81
2021/12/26 21:09:53;;;;;;;6.63;3.38;;;;;;;;;;5082716;28;20054;-81
2021/12/26 21:12:18;;;;;;;5.72;3.42;;;;;;;;;;5080982;28;20167;-81
2021/12/26 21:14:44;;;;;;;4.25;3.05;;;;;;;;;;5059871;28;20032;-81
2021/12/26 21:17:09;;;;;;;4.60;3.45;;;;;;;;;;5077190;28;20039;-81
2021/12/26 21:19:37;;;;;;;4.05;3.10;;;;;;;;;;5075800;28;20024;-81
2021/12/26 21:22:03;;;;;;;4.35;3.40;;;;;;;;;;5078256;28;20056;-80
2021/12/26 21:24:29;;;;;;;4.20;3.47;;;;;;;;;;5075426;28;20039;-81
2021/12/26 21:26:55;;;;;;;4.32;3.13;;;;;;;;;;5081153;28;20021;-81
2021/12/26 21:29:21;;;;;;;5.47;3.55;;;;;;;;;;5061604;28;20033;-81
2021/12/26 21:31:47;;;;;;;5.13;3.60;;;;;;;;;;5077017;28;20067;-80
2021/12/26 21:34:12;;;;;;;4.95;3.63;;;;;;;;;;5076149;28;20040;-80
2021/12/26 21:36:37;;;;;;;3.83;3.03;;;;;;;;;;5076255;28;20024;-80
2021/12/26 21:39:03;;;;;;;3.63;3.00;;;;;;;;;;5077355;28;20037;-80
2021/12/26 21:41:29;;;;;;;3.60;3.13;;;;;;;;;;5077036;28;20028;-81
2021/12/26 21:43:54;;;;;;;4.72;3.15;;;;;;;;;;5075783;28;20063;-82
2021/12/26 21:46:25;;;;;;;4.55;3.30;;;;;;;;;;5074475;28;20056;-82
2021/12/26 21:48:51;;;;;;;4.38;3.40;;;;;;;;;;5075568;28;20031;-83
2021/12/26 21:51:17;;;;;;;3.45;3.00;;;;;;;;;;5057617;28;20032;-83
2021/12/26 21:53:42;;;;;;;4.90;3.13;;;;;;;;;;5075293;28;20085;-83
2021/12/26 21:56:08;;;;;;;3.83;2.88;;;;;;;;;;5074521;28;20207;-84
2021/12/26 21:58:34;;;;;;;3.22;2.80;;;;;;;;;;5057545;28;20028;-84
2021/12/26 22:01:00;;;;;;;3.90;3.20;;;;;;;;;;5074061;28;20044;-85
2021/12/26 22:03:25;;;;;;;5.95;3.35;;;;;;;;;;5074513;28;20463;-85
2021/12/26 22:05:50;;;;;;;5.47;3.28;;;;;;;;;;5057591;28;20077;-86
2021/12/26 22:08:16;;;;;;;5.22;3.40;;;;;;;;;;5075559;28;20044;-86
2021/12/26 22:10:41;;;;;;;4.03;3.38;;;;;;;;;;5073983;28;20391;-85
2021/12/26 22:13:11;;;;;;;6.25;3.20;;;;;;;;;;5075314;28;20033;-85
